Terminal Aerodrome Forecast
Issued by NWS

Home | Current Version | Previous Version | Text Only | Print | Product List | Glossary On
Versions: 1 2 3 4 5 6 7 8 9 10 11 12 13 14 15
000
FTUS45 KVEF 210226 AAA
TAFEED
TAF AMD
KEED 210226Z 2102/2124 18009KT P6SM VCSH SCT050 BKN070
     FM210600 24012G20KT P6SM VCSH BKN030 OVC050
     FM211100 26010KT P6SM BKN100
     FM212000 29013G20KT P6SM SCT250=

USA.gov is the U.S. government's official web portal to all federal, state and local government web resources and services.